createdAt,value
2019-01-25T00:00:25.791Z,36.98
2019-01-25T00:02:54.653Z,36.97
2019-01-25T00:05:23.806Z,36.86
2019-01-25T00:07:52.323Z,36.86
2019-01-25T00:10:20.786Z,36.86
2019-01-25T00:12:49.824Z,37.11
2019-01-25T00:15:18.804Z,37.30
2019-01-25T00:17:47.778Z,37.38
2019-01-25T00:20:16.856Z,37.38
2019-01-25T00:22:45.865Z,37.04
2019-01-25T00:25:14.860Z,37.17
2019-01-25T00:27:44.808Z,37.17
2019-01-25T00:30:14.850Z,37.05
2019-01-25T00:32:43.808Z,37.05
2019-01-25T00:35:17.789Z,36.64
2019-01-25T00:37:47.791Z,37.06
2019-01-25T00:40:16.830Z,36.45
2019-01-25T00:42:45.779Z,36.43
2019-01-25T00:45:14.825Z,36.43
2019-01-25T00:47:43.901Z,36.71
2019-01-25T00:50:15.890Z,36.87
2019-01-25T00:52:45.872Z,36.89
2019-01-25T00:55:14.874Z,36.85
2019-01-25T00:57:43.763Z,36.78
2019-01-25T01:00:18.884Z,36.78
2019-01-25T01:02:48.879Z,37.06
2019-01-25T01:05:17.910Z,36.76
2019-01-25T01:07:47.869Z,36.57
2019-01-25T01:10:55.829Z,36.38
2019-01-25T01:13:25.881Z,36.56
2019-01-25T01:15:56.388Z,36.95
2019-01-25T01:18:25.670Z,36.86
2019-01-25T01:20:54.423Z,36.71
2019-01-25T01:23:24.928Z,36.71
2019-01-25T01:25:53.866Z,36.75
2019-01-25T01:28:22.851Z,36.62
2019-01-25T01:30:52.834Z,36.77
2019-01-25T01:33:21.838Z,36.77
2019-01-25T01:35:50.693Z,36.29
2019-01-25T01:38:19.843Z,36.29
2019-01-25T01:40:48.479Z,36.52
2019-01-25T01:43:18.824Z,36.02
2019-01-25T01:45:47.630Z,36.34
2019-01-25T01:48:16.436Z,36.49
2019-01-25T01:50:45.801Z,36.70
2019-01-25T01:53:47.891Z,36.59
2019-01-25T01:56:16.903Z,36.70
2019-01-25T01:58:46.813Z,36.83
2019-01-25T02:01:15.797Z,36.83
2019-01-25T02:03:43.855Z,36.83
2019-01-25T02:06:12.836Z,36.14
2019-01-25T02:08:41.254Z,36.14
2019-01-25T02:11:10.830Z,36.13
2019-01-25T02:17:33.345Z,36.81
2019-01-25T02:20:02.749Z,36.81
2019-01-25T02:22:34.049Z,36.41
2019-01-25T02:25:04.745Z,35.85
2019-01-25T02:27:33.820Z,35.85
2019-01-25T02:30:03.388Z,36.01
2019-01-25T02:32:34.682Z,36.01
2019-01-25T02:35:04.874Z,36.21
2019-01-25T02:37:33.857Z,36.29
2019-01-25T02:40:02.805Z,36.35
2019-01-25T02:42:33.267Z,36.35
2019-01-25T02:45:03.875Z,36.48
2019-01-25T02:47:33.866Z,36.49
2019-01-25T02:50:02.793Z,36.48
2019-01-25T02:52:32.129Z,36.48
2019-01-25T02:55:01.818Z,36.18
2019-01-25T02:57:31.887Z,36.18
2019-01-25T03:00:00.664Z,35.59
2019-01-25T03:02:30.811Z,35.59
2019-01-25T03:04:59.862Z,35.40
2019-01-25T03:07:28.869Z,35.79
2019-01-25T03:09:58.815Z,36.33
2019-01-25T03:12:27.875Z,36.33
2019-01-25T03:14:57.880Z,36.40
2019-01-25T03:17:27.809Z,36.60
2019-01-25T03:19:56.418Z,36.60
2019-01-25T03:22:25.876Z,36.45
2019-01-25T03:24:54.893Z,36.38
2019-01-25T03:27:24.770Z,36.55
2019-01-25T03:29:53.358Z,36.55
2019-01-25T03:32:22.841Z,36.63
2019-01-25T03:34:53.002Z,36.22
2019-01-25T03:37:22.834Z,35.95
2019-01-25T03:39:51.837Z,35.95
2019-01-25T03:42:20.836Z,35.74
2019-01-25T03:44:49.841Z,35.74
2019-01-25T03:47:18.855Z,36.34
2019-01-25T03:49:47.828Z,36.28
2019-01-25T03:52:17.772Z,36.28
2019-01-25T03:54:47.862Z,36.34
2019-01-25T03:57:17.819Z,36.61
2019-01-25T03:59:46.877Z,36.61
2019-01-25T04:02:15.784Z,36.23
2019-01-25T04:04:45.832Z,36.55
2019-01-25T04:07:14.851Z,36.55
2019-01-25T04:09:44.872Z,36.50
2019-01-25T04:12:13.793Z,35.94
2019-01-25T04:14:42.794Z,35.94
2019-01-25T04:17:12.867Z,36.41
2019-01-25T04:19:43.879Z,35.75
2019-01-25T04:22:12.885Z,36.52
2019-01-25T04:24:42.893Z,36.67
2019-01-25T04:27:11.881Z,36.68
2019-01-25T04:29:40.865Z,36.88
2019-01-25T04:32:11.854Z,36.70
2019-01-25T04:34:40.886Z,36.79
2019-01-25T04:37:09.802Z,36.79
2019-01-25T04:39:45.778Z,37.09
2019-01-25T04:42:14.818Z,36.07
2019-01-25T04:44:44.897Z,36.52
2019-01-25T04:47:13.840Z,36.05
2019-01-25T04:49:42.855Z,35.89
2019-01-25T04:52:13.820Z,35.89
2019-01-25T04:54:42.857Z,35.89
2019-01-25T04:57:11.866Z,35.52
2019-01-25T04:59:40.871Z,36.49
2019-01-25T05:02:10.889Z,36.64
2019-01-25T05:04:39.886Z,36.48
2019-01-25T05:07:08.813Z,36.91
2019-01-25T05:09:40.871Z,36.75
2019-01-25T05:12:09.856Z,36.82
2019-01-25T05:14:38.887Z,36.78
2019-01-25T05:17:07.821Z,36.85
2019-01-25T05:19:40.895Z,36.85
2019-01-25T05:22:10.822Z,36.50
2019-01-25T05:24:39.864Z,36.50
2019-01-25T05:27:09.887Z,36.65
2019-01-25T05:29:53.879Z,36.20
2019-01-25T05:32:23.828Z,37.08
2019-01-25T05:34:53.838Z,37.18
2019-01-25T05:37:22.859Z,37.01
2019-01-25T05:39:51.847Z,37.01
2019-01-25T05:42:21.808Z,36.74
2019-01-25T05:44:53.889Z,36.74
2019-01-25T05:47:22.675Z,36.85
2019-01-25T05:49:52.806Z,36.85
2019-01-25T05:52:22.795Z,36.52
2019-01-25T05:54:52.863Z,36.52
2019-01-25T06:00:09.849Z,35.89
2019-01-25T06:02:38.840Z,36.44
2019-01-25T06:05:06.910Z,36.83
2019-01-25T06:07:34.895Z,36.75
2019-01-25T06:10:03.714Z,36.91
2019-01-25T06:12:32.844Z,36.91
2019-01-25T06:15:00.953Z,36.86
2019-01-25T06:17:28.882Z,36.95
2019-01-25T06:19:57.817Z,36.71
2019-01-25T06:22:25.832Z,36.71
2019-01-25T06:24:54.353Z,36.78
2019-01-25T06:27:23.394Z,36.78
2019-01-25T06:29:52.846Z,36.43
2019-01-25T06:32:21.790Z,36.54
2019-01-25T06:34:50.112Z,36.54
2019-01-25T06:37:20.011Z,35.85
2019-01-25T06:39:49.016Z,37.12
2019-01-25T06:42:17.789Z,37.13
2019-01-25T06:45:26.791Z,37.48
2019-01-25T06:47:54.719Z,36.37
2019-01-25T06:51:45.815Z,36.49
2019-01-25T06:54:14.778Z,36.50
2019-01-25T06:56:42.805Z,36.57
2019-01-25T07:07:24.842Z,36.65
2019-01-25T07:09:52.807Z,35.86
2019-01-25T07:12:20.718Z,35.86
2019-01-25T07:14:48.717Z,35.83
2019-01-25T07:28:23.069Z,36.12
2019-01-25T07:30:51.828Z,36.12
2019-01-25T07:33:19.977Z,36.45
2019-01-25T07:35:49.796Z,37.19
2019-01-25T07:38:18.009Z,37.19
2019-01-25T07:40:46.963Z,37.38
2019-01-25T07:43:15.886Z,37.38
2019-01-25T07:45:45.853Z,37.60
2019-01-25T07:48:13.735Z,37.60
2019-01-25T07:50:42.353Z,37.79
2019-01-25T07:53:10.877Z,37.71
2019-01-25T07:55:39.786Z,37.82
2019-01-25T07:58:07.786Z,37.82
2019-01-25T08:00:35.886Z,37.64
2019-01-25T08:03:03.821Z,36.88
2019-01-25T08:05:32.686Z,36.88
2019-01-25T08:08:01.004Z,36.54
2019-01-25T08:10:29.784Z,36.64
2019-01-25T08:12:57.755Z,36.56
2019-01-25T08:18:15.026Z,37.45
2019-01-25T08:20:44.809Z,37.50
2019-01-25T08:23:16.378Z,37.50
2019-01-25T08:25:45.503Z,37.53
2019-01-25T08:30:16.986Z,37.58
2019-01-25T08:32:44.627Z,37.29
2019-01-25T08:35:14.521Z,37.22
2019-01-25T08:37:42.733Z,37.36
2019-01-25T08:47:53.816Z,36.19
2019-01-25T08:50:22.789Z,36.55
2019-01-25T08:52:51.101Z,36.29
2019-01-25T08:55:21.462Z,37.02
2019-01-25T08:57:50.534Z,37.17
2019-01-25T09:00:20.814Z,37.34
2019-01-25T09:02:48.807Z,37.21
2019-01-25T09:05:16.843Z,36.90
2019-01-25T09:07:44.802Z,36.99
2019-01-25T09:10:16.789Z,36.60
2019-01-25T09:12:45.367Z,36.60
2019-01-25T09:15:22.701Z,36.88
2019-01-25T09:17:50.736Z,36.46
2019-01-25T09:20:19.139Z,36.46
2019-01-25T09:22:47.833Z,35.87
2019-01-25T09:25:15.858Z,35.88
2019-01-25T09:27:44.759Z,36.34
2019-01-25T09:30:14.886Z,36.34
2019-01-25T09:32:43.791Z,36.67
2019-01-25T09:35:12.371Z,36.67
2019-01-25T09:37:40.957Z,36.37
2019-01-25T09:40:13.183Z,36.53
2019-01-25T09:42:41.711Z,36.53
2019-01-25T09:45:10.376Z,36.43
2019-01-25T09:47:38.694Z,36.24
2019-01-25T09:50:09.780Z,36.39
2019-01-25T09:52:38.719Z,36.12
2019-01-25T09:55:08.865Z,36.06
2019-01-25T09:57:36.987Z,35.75
2019-01-25T10:00:24.092Z,34.76
2019-01-25T10:02:52.606Z,34.76
2019-01-25T10:05:20.887Z,35.89
2019-01-25T10:07:49.072Z,36.07
2019-01-25T10:10:17.769Z,36.07
2019-01-25T10:12:45.766Z,35.89
2019-01-25T10:15:17.763Z,36.01
2019-01-25T10:17:45.731Z,36.01
2019-01-25T10:20:13.611Z,35.97
2019-01-25T10:22:41.724Z,35.92
2019-01-25T10:25:09.655Z,35.92
2019-01-25T10:27:37.835Z,35.81
2019-01-25T10:30:08.322Z,35.74
2019-01-25T10:32:37.092Z,34.67
2019-01-25T10:35:07.614Z,34.59
2019-01-25T10:37:35.834Z,35.11
2019-01-25T10:40:04.826Z,35.77
2019-01-25T10:42:32.790Z,36.08
2019-01-25T10:45:04.373Z,36.08
2019-01-25T10:47:30.797Z,36.17
2019-01-25T10:49:59.275Z,36.31
2019-01-25T10:52:27.655Z,36.27
2019-01-25T10:54:55.311Z,36.26
2019-01-25T10:57:23.667Z,36.79
2019-01-25T10:59:51.684Z,36.53
2019-01-25T11:02:19.361Z,36.54
2019-01-25T11:04:47.756Z,36.62
2019-01-25T11:07:17.168Z,35.73
2019-01-25T11:09:46.053Z,32.85
2019-01-25T11:12:14.675Z,33.60
2019-01-25T11:14:42.385Z,33.60
2019-01-25T11:17:10.698Z,33.17
2019-01-25T11:19:38.680Z,32.99
2019-01-25T11:22:06.373Z,33.58
2019-01-25T11:24:34.678Z,34.70
2019-01-25T11:27:03.086Z,34.78
2019-01-25T11:29:31.927Z,35.23
2019-01-25T11:31:59.774Z,34.86
2019-01-25T11:34:27.849Z,34.86
2019-01-25T11:36:55.739Z,35.03
2019-01-25T11:39:23.765Z,35.03
2019-01-25T11:41:51.779Z,35.20
2019-01-25T11:44:20.659Z,34.92
2019-01-25T11:46:48.759Z,35.14
2019-01-25T11:49:17.759Z,34.59
2019-01-25T11:51:45.791Z,34.59
2019-01-25T11:54:14.060Z,35.33
2019-01-25T11:56:42.077Z,33.97
2019-01-25T11:59:12.583Z,33.97
2019-01-25T12:01:41.382Z,34.65
2019-01-25T12:04:09.911Z,34.72
2019-01-25T12:06:38.327Z,35.79
2019-01-25T12:09:09.381Z,35.79
2019-01-25T12:11:37.821Z,35.66
2019-01-25T12:14:07.074Z,35.35
2019-01-25T12:16:34.817Z,35.35
2019-01-25T12:19:03.360Z,35.57
2019-01-25T12:21:31.707Z,35.57
2019-01-25T12:23:59.758Z,35.63
2019-01-25T12:26:27.764Z,35.71
2019-01-25T12:28:55.747Z,35.39
2019-01-25T12:31:23.805Z,35.66
2019-01-25T12:33:52.838Z,35.17
2019-01-25T12:36:20.718Z,35.17
2019-01-25T12:38:48.843Z,34.12
2019-01-25T12:41:16.756Z,34.22
2019-01-25T12:43:44.825Z,34.22
2019-01-25T12:46:12.941Z,35.07
2019-01-25T12:48:41.770Z,36.11
2019-01-25T12:51:22.758Z,36.11
2019-01-25T12:53:51.994Z,35.51
2019-01-25T12:56:57.087Z,35.38
2019-01-25T12:59:26.382Z,36.74
2019-01-25T13:01:55.147Z,36.24
2019-01-25T13:04:23.334Z,36.89
2019-01-25T13:06:51.756Z,37.28
2019-01-25T13:09:20.276Z,35.59
2019-01-25T13:11:49.487Z,36.73
2019-01-25T13:14:18.753Z,37.18
2019-01-25T13:16:46.759Z,37.48
2019-01-25T13:19:15.286Z,38.25
2019-01-25T13:21:44.743Z,37.20
2019-01-25T13:24:13.063Z,36.51
2019-01-25T13:26:41.724Z,36.25
2019-01-25T13:29:10.602Z,33.42
2019-01-25T13:31:38.759Z,29.91
2019-01-25T13:46:53.754Z,32.44
2019-01-25T13:51:42.779Z,33.55
2019-01-25T13:54:11.833Z,33.45
2019-01-25T13:58:13.473Z,33.23
2019-01-25T14:00:41.766Z,33.23
2019-01-25T14:03:13.781Z,33.12
2019-01-25T14:08:25.284Z,34.15
2019-01-25T14:10:53.770Z,33.49
2019-01-25T14:13:21.825Z,33.93
2019-01-25T14:15:50.695Z,32.52
2019-01-25T14:18:19.762Z,32.70
2019-01-25T14:20:47.865Z,33.07
2019-01-25T14:23:15.826Z,33.30
2019-01-25T14:25:43.719Z,33.30
2019-01-25T14:28:11.709Z,33.52
2019-01-25T14:30:41.211Z,33.85
2019-01-25T14:33:10.375Z,34.24
2019-01-25T14:35:40.299Z,34.24
2019-01-25T14:38:12.214Z,34.19
2019-01-25T14:40:41.776Z,34.49
2019-01-25T14:43:09.788Z,34.25
2019-01-25T14:45:37.688Z,33.97
2019-01-25T14:48:06.398Z,33.73
2019-01-25T14:50:34.783Z,33.81
2019-01-25T14:53:03.720Z,33.79
2019-01-25T14:55:31.978Z,33.65
2019-01-25T14:58:00.826Z,33.76
2019-01-25T15:00:28.636Z,33.76
2019-01-25T15:02:57.097Z,33.34
2019-01-25T15:05:25.652Z,33.34
2019-01-25T15:07:54.354Z,33.38
2019-01-25T15:10:24.763Z,33.51
2019-01-25T15:12:56.963Z,32.82
2019-01-25T15:15:25.758Z,34.03
2019-01-25T15:17:53.679Z,34.03
2019-01-25T15:20:23.829Z,34.01
2019-01-25T15:22:53.015Z,34.31
2019-01-25T15:25:22.770Z,34.31
2019-01-25T15:27:51.783Z,34.26
2019-01-25T15:30:30.816Z,34.26
2019-01-25T15:32:59.674Z,34.36
2019-01-25T15:35:29.649Z,34.34
2019-01-25T15:37:59.356Z,34.34
2019-01-25T15:57:31.756Z,34.93
2019-01-25T15:59:59.588Z,34.93
2019-01-25T16:02:29.721Z,35.50
2019-01-25T16:04:57.054Z,35.50
2019-01-25T16:07:25.709Z,35.13
2019-01-25T16:09:53.674Z,35.16
2019-01-25T16:12:22.677Z,35.26
2019-01-25T16:16:58.759Z,35.84
2019-01-25T16:19:26.804Z,35.84
2019-01-25T16:21:57.593Z,35.40
2019-01-25T16:24:27.836Z,35.18
2019-01-25T16:26:55.777Z,35.08
2019-01-25T16:29:23.734Z,35.08
2019-01-25T16:31:51.772Z,34.66
2019-01-25T16:34:20.794Z,34.72
2019-01-25T16:36:48.802Z,34.40
2019-01-25T16:39:17.753Z,34.78
2019-01-25T16:41:46.708Z,35.03
2019-01-25T16:44:14.719Z,35.22
2019-01-25T16:46:42.802Z,35.15
2019-01-25T16:49:11.718Z,35.03
2019-01-25T16:51:40.786Z,35.44
2019-01-25T16:54:09.504Z,35.44
2019-01-25T16:56:37.847Z,35.30
2019-01-25T16:59:06.806Z,35.47
2019-01-25T17:01:35.775Z,35.36
2019-01-25T17:04:04.791Z,35.22
2019-01-25T17:06:32.785Z,35.22
2019-01-25T17:09:00.772Z,34.72
2019-01-25T17:11:29.767Z,34.64
2019-01-25T17:13:56.835Z,34.51
2019-01-25T17:16:26.770Z,34.21
2019-01-25T17:18:54.692Z,34.21
2019-01-25T17:21:22.828Z,34.44
2019-01-25T17:23:50.771Z,34.88
2019-01-25T17:26:18.587Z,35.36
2019-01-25T17:28:47.377Z,35.38
2019-01-25T17:31:15.726Z,35.33
2019-01-25T17:33:43.765Z,35.35
2019-01-25T17:36:11.776Z,35.50
2019-01-25T17:38:39.590Z,35.46
2019-01-25T17:41:07.827Z,35.58
2019-01-25T17:43:35.789Z,35.29
2019-01-25T17:46:05.054Z,35.72
2019-01-25T17:48:33.717Z,35.12
2019-01-25T17:51:01.832Z,35.12
2019-01-25T17:53:29.717Z,35.09
2019-01-25T17:55:57.778Z,34.93
2019-01-25T17:58:25.768Z,34.94
2019-01-25T18:00:54.792Z,34.67
2019-01-25T18:03:22.780Z,34.97
2019-01-25T18:05:51.397Z,35.13
2019-01-25T18:08:20.398Z,35.89
2019-01-25T18:10:49.771Z,35.43
2019-01-25T18:13:18.371Z,35.64
2019-01-25T18:15:46.718Z,35.64
2019-01-25T18:18:15.344Z,35.61
2019-01-25T18:20:43.789Z,35.59
2019-01-25T18:23:11.737Z,35.51
2019-01-25T18:25:59.824Z,35.73
2019-01-25T18:28:38.412Z,35.63
2019-01-25T18:31:15.728Z,34.96
2019-01-25T18:33:46.750Z,34.73
2019-01-25T18:36:15.734Z,35.52
2019-01-25T18:40:29.777Z,34.05
2019-01-25T18:42:58.753Z,34.09
2019-01-25T18:45:27.760Z,34.53
2019-01-25T18:47:55.489Z,35.08
2019-01-25T18:50:24.062Z,35.23
2019-01-25T18:52:52.324Z,35.33
2019-01-25T18:55:21.803Z,35.38
2019-01-25T18:57:49.742Z,35.50
2019-01-25T19:00:18.757Z,35.66
2019-01-25T19:02:47.364Z,35.81
2019-01-25T19:05:15.796Z,35.52
2019-01-25T19:07:44.748Z,35.86
2019-01-25T19:10:18.358Z,35.61
2019-01-25T19:12:46.770Z,35.61
2019-01-25T19:15:18.940Z,35.31
2019-01-25T19:17:46.762Z,34.46
2019-01-25T19:20:14.685Z,34.46
2019-01-25T19:23:37.959Z,36.11
2019-01-25T19:26:06.769Z,36.49
2019-01-25T19:28:35.335Z,36.49
2019-01-25T19:31:03.771Z,36.55
2019-01-25T19:33:32.769Z,35.98
2019-01-25T19:36:00.685Z,35.77
2019-01-25T19:46:59.090Z,35.88
2019-01-25T19:49:27.760Z,35.74
2019-01-25T19:51:56.080Z,35.74
2019-01-25T19:56:34.348Z,36.49
2019-01-25T19:59:02.724Z,36.49
2019-01-25T20:01:30.767Z,36.35
2019-01-25T20:03:58.830Z,35.97
2019-01-25T20:06:27.744Z,35.42
2019-01-25T20:08:55.674Z,35.42
2019-01-25T20:11:23.769Z,34.89
2019-01-25T20:17:13.851Z,35.95
2019-01-25T20:19:41.691Z,36.16
2019-01-25T20:22:09.775Z,35.82
2019-01-25T20:24:38.337Z,36.09
2019-01-25T20:27:06.733Z,36.14
2019-01-25T20:29:34.382Z,35.86
2019-01-25T20:32:02.710Z,35.38
2019-01-25T20:34:30.780Z,35.31
2019-01-25T20:36:59.124Z,35.24
2019-01-25T20:39:28.298Z,35.01
2019-01-25T20:41:56.750Z,34.88
2019-01-25T20:47:56.357Z,36.22
2019-01-25T20:50:26.321Z,36.13
2019-01-25T20:52:53.731Z,35.83
2019-01-25T20:55:21.574Z,35.59
2019-01-25T20:57:50.030Z,35.12
2019-01-25T21:00:22.747Z,34.99
2019-01-25T21:02:50.750Z,34.76
2019-01-25T21:05:19.376Z,35.18
2019-01-25T21:07:49.043Z,35.86
2019-01-25T21:10:18.802Z,36.93
2019-01-25T21:12:48.231Z,37.04
2019-01-25T21:15:18.338Z,36.67
2019-01-25T21:17:48.052Z,36.49
2019-01-25T21:22:37.061Z,37.24
2019-01-25T21:25:05.785Z,37.29
2019-01-25T21:27:34.038Z,38.58
2019-01-25T21:30:03.104Z,37.64
2019-01-25T21:32:32.345Z,37.64
2019-01-25T21:35:00.736Z,36.24
2019-01-25T21:37:29.104Z,35.47
2019-01-25T21:39:58.233Z,35.47
2019-01-25T21:42:27.738Z,35.36
2019-01-25T21:44:56.733Z,35.77
2019-01-25T21:57:51.572Z,36.93
2019-01-25T22:00:26.006Z,36.48
2019-01-25T22:02:55.068Z,36.48
2019-01-25T22:05:23.377Z,35.95
2019-01-25T22:07:51.701Z,35.74
2019-01-25T22:10:21.879Z,35.23
2019-01-25T22:12:50.752Z,34.97
2019-01-25T22:15:19.817Z,34.97
2019-01-25T22:17:48.625Z,36.03
2019-01-25T22:20:20.226Z,36.03
2019-01-25T22:22:48.755Z,36.49
2019-01-25T22:25:16.715Z,36.96
2019-01-25T22:27:47.723Z,37.19
2019-01-25T22:30:17.742Z,37.19
2019-01-25T22:32:45.768Z,38.30
2019-01-25T22:35:13.676Z,39.04
2019-01-25T22:37:41.755Z,38.82
2019-01-25T22:40:11.814Z,39.33
2019-01-25T22:42:40.738Z,39.45
2019-01-25T22:45:10.328Z,38.94
2019-01-25T22:47:39.332Z,39.39
2019-01-25T22:51:30.191Z,39.77
2019-01-25T22:53:58.604Z,38.79
2019-01-25T22:56:26.943Z,38.42
2019-01-25T22:58:55.575Z,37.85
2019-01-25T23:01:31.785Z,37.85
2019-01-25T23:07:10.360Z,34.68
2019-01-25T23:10:11.823Z,34.94
2019-01-25T23:12:41.102Z,35.13
2019-01-25T23:15:14.762Z,35.13
2019-01-25T23:28:27.662Z,35.34
2019-01-25T23:30:56.661Z,35.31
2019-01-25T23:33:25.765Z,35.60
2019-01-25T23:35:54.395Z,35.84
2019-01-25T23:48:41.011Z,34.55
2019-01-25T23:52:10.032Z,35.50
2019-01-25T23:54:39.797Z,35.67
2019-01-25T23:57:11.817Z,35.15
2019-01-25T23:59:41.752Z,34.70
